Detall de PIREP

Printer-friendly versionPDF version

[2013/06/17 09:01:00]
Flight IATA:CT1004
Pilot Number:042
Company ICAO:CAT
Aircraft Type:AT72/F
PAX:10
Departing Airport: LFMP
Destination Airport: LERS
Alternate Airport:LEBL
Online: VATSIM
Route:BEXUR H110 GIR
Flight Level:FL170
No Slew and time accel
No pause
Crash detect
Detect pilot in Cockpit between each 30 and 45 minutes
09:01 Zero fuel Weight: 40070 Lbs, Fuel Weight: 11197 Lbs
09:01 VATSIM:LFMP 170830Z 11017KT 9999 FEW030 SCT130 23/17 Q1012 NOSIG
09:01 VATSIM:LERS 170830Z VRB02KT 9999 FEW040 25/16 Q1010
09:01 VOICE CATALONIAN/FLAMA DEL CANIGO
09:14 Parking Brakes off
09:20 Take-off
09:20 Take off Weight: 51183 Lbs
09:20 Wind: 000º @ 002 Knots Heading: 148º
09:20 POS N42º 44´ 35´´ E002º 52´ 15´´
09:20 Gear Up: 122 Knots
09:20 Flaps:1 at 122 Knots
09:21 Flaps:0 at 145 Knots
09:29 TOC
09:29 Fuel Weight: 10703 Lb
09:35 Wind:312º@041 Knots Heading: 255º Ground Speed: 293 Knots Altitude 16981 ft
09:39 TOD
09:39 Fuel Weight: 10298 Lb
09:50 Wind:341º@015 Knots Heading: 215º Ground Speed: 256 Knots Altitude 5994 ft
09:56 Flaps:1 at 174 Knots
09:58 Gear Down: 150 Knots
09:58 Flaps:2 at 151 Knots
10:02 TouchDown:Rate -110 ft/min Speed: 101 Knots
10:02 VATSIM:LERS 170930Z 13005KT 070V200 CAVOK 26/18 Q1010
10:02 Land
10:02 Wind:000º@000 Knots
10:02 Heading: 249º
10:02 Flight Duration: 00:42
10:02 Landing Weight: 49987 Lbs
10:02 POS N41º 08´ 43´´ E001º 09´ 39´´
10:04 Parking brakes on
10:04 Block to Block Duration: 00:50
10:04 Final Fuel: 9898 Lbls
10:04 Spent Fuel: 1298 Lbls
10:04 Flight Length: 174 NM
10:04 TOD Land Length: 87 NM

Exportar CSV

Powered by Drupal - Modified by Danger4k